sensor_id;sensor_type;location;lat;lon;timestamp;pressure;altitude;pressure_sealevel;temperature;humidity
69153;BME280;56261;51.580;4.578;2023-06-22T00:01:46;102015.59;;;18.32;100.00
69153;BME280;56261;51.580;4.578;2023-06-22T00:04:12;102011.41;;;18.30;100.00
69153;BME280;56261;51.580;4.578;2023-06-22T00:06:37;102012.06;;;18.32;100.00
69153;BME280;56261;51.580;4.578;2023-06-22T00:09:02;102017.13;;;18.20;100.00
69153;BME280;56261;51.580;4.578;2023-06-22T00:11:28;102004.50;;;18.05;100.00
69153;BME280;56261;51.580;4.578;2023-06-22T00:13:54;102012.03;;;18.10;100.00
69153;BME280;56261;51.580;4.578;2023-06-22T00:16:19;102016.59;;;18.10;100.00
69153;BME280;56261;51.580;4.578;2023-06-22T00:18:44;102004.66;;;17.82;100.00
69153;BME280;56261;51.580;4.578;2023-06-22T00:21:12;102012.34;;;18.00;100.00
69153;BME280;56261;51.580;4.578;2023-06-22T00:23:38;102000.63;;;17.93;100.00
69153;BME280;56261;51.580;4.578;2023-06-22T00:26:03;102000.09;;;17.83;100.00
69153;BME280;56261;51.580;4.578;2023-06-22T00:28:29;102004.38;;;17.77;100.00
69153;BME280;56261;51.580;4.578;2023-06-22T00:30:54;102001.75;;;17.69;100.00
69153;BME280;56261;51.580;4.578;2023-06-22T00:33:20;101995.28;;;17.49;100.00
69153;BME280;56261;51.580;4.578;2023-06-22T00:35:45;101996.66;;;17.59;100.00
69153;BME280;56261;51.580;4.578;2023-06-22T00:38:11;101993.09;;;17.74;100.00
69153;BME280;56261;51.580;4.578;2023-06-22T00:40:36;101995.03;;;17.80;100.00
69153;BME280;56261;51.580;4.578;2023-06-22T00:43:02;101997.75;;;17.80;100.00
69153;BME280;56261;51.580;4.578;2023-06-22T00:45:28;101994.97;;;17.73;100.00
69153;BME280;56261;51.580;4.578;2023-06-22T00:47:56;102003.63;;;17.83;100.00
69153;BME280;56261;51.580;4.578;2023-06-22T00:50:23;102002.22;;;17.88;100.00
69153;BME280;56261;51.580;4.578;2023-06-22T00:52:53;101991.69;;;17.78;100.00
69153;BME280;56261;51.580;4.578;2023-06-22T00:55:22;101988.16;;;17.77;100.00
69153;BME280;56261;51.580;4.578;2023-06-22T00:57:48;101983.97;;;17.75;100.00
69153;BME280;56261;51.580;4.578;2023-06-22T01:00:15;101975.91;;;17.60;100.00
69153;BME280;56261;51.580;4.578;2023-06-22T01:02:46;101978.97;;;17.57;100.00
69153;BME280;56261;51.580;4.578;2023-06-22T01:05:13;101987.16;;;17.63;100.00
69153;BME280;56261;51.580;4.578;2023-06-22T01:07:43;101984.44;;;17.63;100.00
69153;BME280;56261;51.580;4.578;2023-06-22T01:12:42;101989.34;;;17.75;100.00
69153;BME280;56261;51.580;4.578;2023-06-22T01:15:27;101983.53;;;17.71;100.00
69153;BME280;56261;51.580;4.578;2023-06-22T01:17:56;101981.47;;;17.58;100.00
69153;BME280;56261;51.580;4.578;2023-06-22T01:20:23;101978.47;;;17.68;100.00
69153;BME280;56261;51.580;4.578;2023-06-22T01:23:01;101986.13;;;17.79;100.00
69153;BME280;56261;51.580;4.578;2023-06-22T01:25:45;101991.88;;;17.76;100.00
69153;BME280;56261;51.580;4.578;2023-06-22T01:30:41;101983.78;;;17.76;100.00
69153;BME280;56261;51.580;4.578;2023-06-22T01:33:10;101981.91;;;17.77;100.00
69153;BME280;56261;51.580;4.578;2023-06-22T01:35:38;101983.13;;;17.74;100.00
69153;BME280;56261;51.580;4.578;2023-06-22T01:38:04;101983.34;;;17.73;100.00
69153;BME280;56261;51.580;4.578;2023-06-22T01:40:31;101984.53;;;17.70;100.00
69153;BME280;56261;51.580;4.578;2023-06-22T01:43:00;101972.47;;;17.66;100.00
69153;BME280;56261;51.580;4.578;2023-06-22T01:45:26;101975.91;;;17.60;100.00
69153;BME280;56261;51.580;4.578;2023-06-22T01:47:52;101967.38;;;17.41;100.00
69153;BME280;56261;51.580;4.578;2023-06-22T01:50:18;101976.66;;;17.39;100.00
69153;BME280;56261;51.580;4.578;2023-06-22T01:52:43;101981.13;;;17.32;100.00
69153;BME280;56261;51.580;4.578;2023-06-22T01:55:08;101980.75;;;17.20;100.00
69153;BME280;56261;51.580;4.578;2023-06-22T01:57:34;101982.34;;;17.29;100.00
69153;BME280;56261;51.580;4.578;2023-06-22T02:00:04;101972.19;;;17.16;100.00
69153;BME280;56261;51.580;4.578;2023-06-22T02:02:43;101968.59;;;17.24;100.00
69153;BME280;56261;51.580;4.578;2023-06-22T02:05:16;101976.56;;;17.32;100.00
69153;BME280;56261;51.580;4.578;2023-06-22T02:07:47;101982.44;;;17.36;100.00
69153;BME280;56261;51.580;4.578;2023-06-22T02:10:16;101967.47;;;17.33;100.00
69153;BME280;56261;51.580;4.578;2023-06-22T02:12:45;101968.13;;;17.20;100.00
69153;BME280;56261;51.580;4.578;2023-06-22T02:15:12;101975.75;;;17.32;100.00
69153;BME280;56261;51.580;4.578;2023-06-22T02:17:39;101962.53;;;17.37;100.00
69153;BME280;56261;51.580;4.578;2023-06-22T02:20:15;101973.03;;;17.47;100.00
69153;BME280;56261;51.580;4.578;2023-06-22T02:22:41;101967.00;;;17.45;100.00
69153;BME280;56261;51.580;4.578;2023-06-22T02:25:07;101968.66;;;17.46;100.00
69153;BME280;56261;51.580;4.578;2023-06-22T02:27:33;101964.28;;;17.45;100.00
69153;BME280;56261;51.580;4.578;2023-06-22T02:29:58;101966.72;;;17.39;100.00
69153;BME280;56261;51.580;4.578;2023-06-22T02:32:23;101974.63;;;17.41;100.00
69153;BME280;56261;51.580;4.578;2023-06-22T02:34:49;101966.25;;;17.36;100.00
69153;BME280;56261;51.580;4.578;2023-06-22T02:37:14;101961.25;;;17.33;100.00
69153;BME280;56261;51.580;4.578;2023-06-22T02:39:40;101963.47;;;17.29;100.00
69153;BME280;56261;51.580;4.578;2023-06-22T02:42:05;101974.91;;;17.31;100.00
69153;BME280;56261;51.580;4.578;2023-06-22T02:44:31;101976.56;;;17.32;100.00
69153;BME280;56261;51.580;4.578;2023-06-22T02:46:56;101976.13;;;17.29;100.00
69153;BME280;56261;51.580;4.578;2023-06-22T02:49:22;101970.38;;;17.17;100.00
69153;BME280;56261;51.580;4.578;2023-06-22T02:51:48;101970.63;;;17.22;100.00
69153;BME280;56261;51.580;4.578;2023-06-22T02:54:14;101954.28;;;17.24;100.00
69153;BME280;56261;51.580;4.578;2023-06-22T02:56:39;101956.13;;;17.23;100.00
69153;BME280;56261;51.580;4.578;2023-06-22T02:59:06;101958.38;;;17.19;100.00
69153;BME280;56261;51.580;4.578;2023-06-22T03:01:31;101935.84;;;17.12;100.00
69153;BME280;56261;51.580;4.578;2023-06-22T03:04:03;101938.19;;;17.15;100.00
69153;BME280;56261;51.580;4.578;2023-06-22T03:06:29;101955.09;;;17.09;100.00
69153;BME280;56261;51.580;4.578;2023-06-22T03:09:01;101942.84;;;17.07;100.00
69153;BME280;56261;51.580;4.578;2023-06-22T03:11:29;101944.03;;;17.04;100.00
69153;BME280;56261;51.580;4.578;2023-06-22T03:13:55;101939.50;;;17.19;100.00
69153;BME280;56261;51.580;4.578;2023-06-22T03:16:20;101912.53;;;17.05;100.00
69153;BME280;56261;51.580;4.578;2023-06-22T03:18:46;101936.22;;;17.09;100.00
69153;BME280;56261;51.580;4.578;2023-06-22T03:21:11;101931.50;;;17.11;100.00
69153;BME280;56261;51.580;4.578;2023-06-22T03:23:37;101925.16;;;17.19;100.00
69153;BME280;56261;51.580;4.578;2023-06-22T03:26:02;101934.91;;;17.05;100.00
69153;BME280;56261;51.580;4.578;2023-06-22T03:28:29;101936.34;;;16.78;100.00
69153;BME280;56261;51.580;4.578;2023-06-22T03:30:56;101930.75;;;16.65;100.00
69153;BME280;56261;51.580;4.578;2023-06-22T03:33:22;101937.28;;;16.70;100.00
69153;BME280;56261;51.580;4.578;2023-06-22T03:35:47;101937.53;;;16.84;100.00
69153;BME280;56261;51.580;4.578;2023-06-22T03:38:13;101932.34;;;16.74;100.00
69153;BME280;56261;51.580;4.578;2023-06-22T03:40:38;101924.47;;;16.72;100.00
69153;BME280;56261;51.580;4.578;2023-06-22T03:43:03;101929.22;;;16.70;100.00
69153;BME280;56261;51.580;4.578;2023-06-22T03:45:29;101939.97;;;16.70;100.00
69153;BME280;56261;51.580;4.578;2023-06-22T03:47:54;101933.38;;;16.73;100.00
69153;BME280;56261;51.580;4.578;2023-06-22T03:50:19;101931.81;;;16.78;100.00
69153;BME280;56261;51.580;4.578;2023-06-22T03:52:48;101907.84;;;16.69;100.00
69153;BME280;56261;51.580;4.578;2023-06-22T03:55:13;101924.03;;;16.98;100.00
69153;BME280;56261;51.580;4.578;2023-06-22T03:57:39;101931.50;;;17.11;100.00
69153;BME280;56261;51.580;4.578;2023-06-22T04:00:06;101926.19;;;17.18;100.00
69153;BME280;56261;51.580;4.578;2023-06-22T04:02:31;101920.22;;;17.08;100.00
69153;BME280;56261;51.580;4.578;2023-06-22T04:04:57;101936.88;;;17.26;100.00
69153;BME280;56261;51.580;4.578;2023-06-22T04:07:22;101931.09;;;17.29;100.00
69153;BME280;56261;51.580;4.578;2023-06-22T04:09:47;101929.53;;;17.35;100.00
69153;BME280;56261;51.580;4.578;2023-06-22T04:12:13;101927.00;;;17.48;100.00
69153;BME280;56261;51.580;4.578;2023-06-22T04:14:38;101922.22;;;17.50;100.00
69153;BME280;56261;51.580;4.578;2023-06-22T04:17:04;101923.84;;;17.45;100.00
69153;BME280;56261;51.580;4.578;2023-06-22T04:19:30;101934.25;;;17.48;100.00
69153;BME280;56261;51.580;4.578;2023-06-22T04:21:55;101936.34;;;17.67;100.00
69153;BME280;56261;51.580;4.578;2023-06-22T04:24:20;101929.22;;;17.59;100.00
69153;BME280;56261;51.580;4.578;2023-06-22T04:26:46;101939.22;;;17.66;100.00
69153;BME280;56261;51.580;4.578;2023-06-22T04:29:12;101937.25;;;17.74;100.00
69153;BME280;56261;51.580;4.578;2023-06-22T04:31:38;101928.34;;;17.74;100.00
69153;BME280;56261;51.580;4.578;2023-06-22T04:34:04;101932.25;;;17.71;100.00
69153;BME280;56261;51.580;4.578;2023-06-22T04:36:37;101942.41;;;17.84;100.00
69153;BME280;56261;51.580;4.578;2023-06-22T04:39:10;101946.28;;;17.81;100.00
69153;BME280;56261;51.580;4.578;2023-06-22T04:41:37;101945.78;;;17.93;100.00
69153;BME280;56261;51.580;4.578;2023-06-22T04:44:16;101942.53;;;17.97;100.00
69153;BME280;56261;51.580;4.578;2023-06-22T04:47:00;101940.84;;;17.96;100.00
69153;BME280;56261;51.580;4.578;2023-06-22T04:49:28;101949.16;;;17.80;100.00
69153;BME280;56261;51.580;4.578;2023-06-22T04:52:05;101938.84;;;17.83;100.00
69153;BME280;56261;51.580;4.578;2023-06-22T04:54:31;101940.25;;;17.79;100.00
69153;BME280;56261;51.580;4.578;2023-06-22T04:56:59;101939.31;;;17.87;100.00
69153;BME280;56261;51.580;4.578;2023-06-22T04:59:29;101940.53;;;18.06;100.00
69153;BME280;56261;51.580;4.578;2023-06-22T05:02:00;101936.50;;;17.95;100.00
69153;BME280;56261;51.580;4.578;2023-06-22T05:04:26;101944.59;;;17.80;100.00
69153;BME280;56261;51.580;4.578;2023-06-22T05:06:53;101933.81;;;17.95;100.00
69153;BME280;56261;51.580;4.578;2023-06-22T05:09:19;101928.25;;;17.82;100.00
69153;BME280;56261;51.580;4.578;2023-06-22T05:11:45;101930.38;;;18.08;100.00
69153;BME280;56261;51.580;4.578;2023-06-22T05:14:11;101929.09;;;18.25;100.00
69153;BME280;56261;51.580;4.578;2023-06-22T05:16:37;101928.63;;;18.43;100.00
69153;BME280;56261;51.580;4.578;2023-06-22T05:19:02;101931.44;;;18.57;100.00
69153;BME280;56261;51.580;4.578;2023-06-22T05:21:29;101933.94;;;18.58;100.00
69153;BME280;56261;51.580;4.578;2023-06-22T05:23:54;101933.94;;;18.58;100.00
69153;BME280;56261;51.580;4.578;2023-06-22T05:26:21;101926.31;;;18.40;100.00
69153;BME280;56261;51.580;4.578;2023-06-22T05:28:47;101938.34;;;18.66;100.00
69153;BME280;56261;51.580;4.578;2023-06-22T05:31:14;101926.38;;;19.03;100.00
69153;BME280;56261;51.580;4.578;2023-06-22T05:33:41;101927.09;;;19.19;100.00
69153;BME280;56261;51.580;4.578;2023-06-22T05:36:06;101925.66;;;19.23;100.00
69153;BME280;56261;51.580;4.578;2023-06-22T05:38:32;101934.97;;;19.14;100.00
69153;BME280;56261;51.580;4.578;2023-06-22T05:40:57;101924.03;;;19.35;100.00
69153;BME280;56261;51.580;4.578;2023-06-22T05:43:23;101921.50;;;19.20;100.00
69153;BME280;56261;51.580;4.578;2023-06-22T05:45:48;101925.91;;;19.35;100.00
69153;BME280;56261;51.580;4.578;2023-06-22T05:48:13;101918.91;;;19.47;100.00
69153;BME280;56261;51.580;4.578;2023-06-22T05:50:39;101914.59;;;19.66;100.00
69153;BME280;56261;51.580;4.578;2023-06-22T05:53:04;101920.88;;;19.73;100.00
69153;BME280;56261;51.580;4.578;2023-06-22T05:55:32;101913.53;;;19.60;100.00
69153;BME280;56261;51.580;4.578;2023-06-22T05:57:57;101923.66;;;19.38;100.00
69153;BME280;56261;51.580;4.578;2023-06-22T06:00:23;101920.38;;;19.56;100.00
69153;BME280;56261;51.580;4.578;2023-06-22T06:02:49;101920.25;;;19.78;100.00
69153;BME280;56261;51.580;4.578;2023-06-22T06:05:14;101920.50;;;19.83;100.00
69153;BME280;56261;51.580;4.578;2023-06-22T06:07:40;101913.44;;;20.02;100.00
69153;BME280;56261;51.580;4.578;2023-06-22T06:10:06;101919.72;;;20.29;100.00
69153;BME280;56261;51.580;4.578;2023-06-22T06:12:32;101922.22;;;20.44;100.00
69153;BME280;56261;51.580;4.578;2023-06-22T06:14:57;101925.38;;;20.34;100.00
69153;BME280;56261;51.580;4.578;2023-06-22T06:17:23;101923.06;;;20.38;100.00
69153;BME280;56261;51.580;4.578;2023-06-22T06:19:48;101905.97;;;20.50;100.00
69153;BME280;56261;51.580;4.578;2023-06-22T06:22:13;101918.47;;;20.71;100.00
69153;BME280;56261;51.580;4.578;2023-06-22T06:24:39;101911.16;;;20.85;100.00
69153;BME280;56261;51.580;4.578;2023-06-22T06:27:04;101914.09;;;20.77;100.00
69153;BME280;56261;51.580;4.578;2023-06-22T06:29:31;101898.75;;;21.16;100.00
69153;BME280;56261;51.580;4.578;2023-06-22T06:31:56;101892.03;;;21.25;100.00
69153;BME280;56261;51.580;4.578;2023-06-22T06:34:22;101886.97;;;21.49;100.00
69153;BME280;56261;51.580;4.578;2023-06-22T06:36:47;101893.22;;;21.49;100.00
69153;BME280;56261;51.580;4.578;2023-06-22T06:39:12;101893.66;;;21.46;100.00
69153;BME280;56261;51.580;4.578;2023-06-22T06:41:38;101890.63;;;21.61;100.00
69153;BME280;56261;51.580;4.578;2023-06-22T06:44:03;101898.00;;;22.24;100.00
69153;BME280;56261;51.580;4.578;2023-06-22T06:46:29;101908.75;;;21.74;100.00
69153;BME280;56261;51.580;4.578;2023-06-22T06:48:54;101900.25;;;21.95;100.00
69153;BME280;56261;51.580;4.578;2023-06-22T06:51:20;101903.84;;;21.89;100.00
69153;BME280;56261;51.580;4.578;2023-06-22T06:53:45;101901.41;;;21.74;100.00
69153;BME280;56261;51.580;4.578;2023-06-22T06:56:10;101899.91;;;21.85;100.00
69153;BME280;56261;51.580;4.578;2023-06-22T06:58:36;101891.00;;;21.71;100.00
69153;BME280;56261;51.580;4.578;2023-06-22T07:01:02;101891.94;;;21.52;100.00
69153;BME280;56261;51.580;4.578;2023-06-22T07:03:28;101889.84;;;22.24;100.00
69153;BME280;56261;51.580;4.578;2023-06-22T07:05:54;101880.38;;;22.52;100.00
69153;BME280;56261;51.580;4.578;2023-06-22T07:08:19;101875.22;;;22.44;100.00
69153;BME280;56261;51.580;4.578;2023-06-22T07:10:44;101884.47;;;22.61;100.00
69153;BME280;56261;51.580;4.578;2023-06-22T07:13:10;101885.16;;;23.00;100.00
69153;BME280;56261;51.580;4.578;2023-06-22T07:15:35;101876.34;;;23.16;100.00
69153;BME280;56261;51.580;4.578;2023-06-22T07:18:00;101884.50;;;22.36;100.00
69153;BME280;56261;51.580;4.578;2023-06-22T07:20:26;101885.69;;;22.15;100.00
69153;BME280;56261;51.580;4.578;2023-06-22T07:22:51;101869.69;;;22.75;100.00
69153;BME280;56261;51.580;4.578;2023-06-22T07:25:17;101873.75;;;23.21;100.00
69153;BME280;56261;51.580;4.578;2023-06-22T07:28:00;101866.28;;;23.35;100.00
69153;BME280;56261;51.580;4.578;2023-06-22T07:30:27;101862.97;;;23.15;100.00
69153;BME280;56261;51.580;4.578;2023-06-22T07:32:53;101865.59;;;23.40;100.00
69153;BME280;56261;51.580;4.578;2023-06-22T07:35:18;101863.75;;;23.94;100.00
69153;BME280;56261;51.580;4.578;2023-06-22T07:37:44;101861.31;;;24.05;100.00
69153;BME280;56261;51.580;4.578;2023-06-22T07:40:10;101862.56;;;24.02;100.00
69153;BME280;56261;51.580;4.578;2023-06-22T07:42:35;101857.41;;;23.40;100.00
69153;BME280;56261;51.580;4.578;2023-06-22T07:45:02;101857.50;;;23.33;100.00
69153;BME280;56261;51.580;4.578;2023-06-22T07:47:28;101852.88;;;23.34;100.00
69153;BME280;56261;51.580;4.578;2023-06-22T07:49:54;101852.63;;;22.87;100.00
69153;BME280;56261;51.580;4.578;2023-06-22T07:52:21;101846.50;;;22.91;100.00
69153;BME280;56261;51.580;4.578;2023-06-22T07:54:47;101842.00;;;22.97;100.00
69153;BME280;56261;51.580;4.578;2023-06-22T07:57:12;101836.03;;;22.88;100.00
69153;BME280;56261;51.580;4.578;2023-06-22T07:59:38;101837.38;;;23.04;100.00
69153;BME280;56261;51.580;4.578;2023-06-22T08:02:04;101830.31;;;22.78;100.00
69153;BME280;56261;51.580;4.578;2023-06-22T08:04:30;101821.03;;;22.67;100.00
69153;BME280;56261;51.580;4.578;2023-06-22T08:06:57;101827.47;;;22.73;100.00
69153;BME280;56261;51.580;4.578;2023-06-22T08:09:22;101823.59;;;22.80;100.00
69153;BME280;56261;51.580;4.578;2023-06-22T08:11:47;101824.63;;;22.61;100.00
69153;BME280;56261;51.580;4.578;2023-06-22T08:14:14;101818.63;;;22.77;100.00
69153;BME280;56261;51.580;4.578;2023-06-22T08:16:41;101824.94;;;22.90;100.00
69153;BME280;56261;51.580;4.578;2023-06-22T08:19:06;101828.91;;;22.32;100.00
69153;BME280;56261;51.580;4.578;2023-06-22T08:21:32;101828.03;;;22.56;100.00
69153;BME280;56261;51.580;4.578;2023-06-22T08:23:57;101817.56;;;22.60;100.00
69153;BME280;56261;51.580;4.578;2023-06-22T08:26:22;101817.38;;;22.55;100.00
69153;BME280;56261;51.580;4.578;2023-06-22T08:28:48;101824.72;;;22.91;100.00
69153;BME280;56261;51.580;4.578;2023-06-22T08:31:13;101825.84;;;22.47;100.00
69153;BME280;56261;51.580;4.578;2023-06-22T08:33:39;101829.38;;;22.29;100.00
69153;BME280;56261;51.580;4.578;2023-06-22T08:36:05;101832.84;;;22.11;100.00
69153;BME280;56261;51.580;4.578;2023-06-22T08:38:31;101838.56;;;22.28;100.00
69153;BME280;56261;51.580;4.578;2023-06-22T08:40:57;101842.06;;;22.35;100.00
69153;BME280;56261;51.580;4.578;2023-06-22T08:43:22;101830.28;;;22.16;100.00
69153;BME280;56261;51.580;4.578;2023-06-22T08:45:48;101835.09;;;22.39;100.00
69153;BME280;56261;51.580;4.578;2023-06-22T08:48:13;101829.31;;;22.54;100.00
69153;BME280;56261;51.580;4.578;2023-06-22T08:50:39;101824.16;;;22.27;100.00
69153;BME280;56261;51.580;4.578;2023-06-22T08:53:05;101824.50;;;22.06;100.00
69153;BME280;56261;51.580;4.578;2023-06-22T08:55:31;101814.78;;;22.23;100.00
69153;BME280;56261;51.580;4.578;2023-06-22T08:57:56;101815.53;;;22.30;100.00
69153;BME280;56261;51.580;4.578;2023-06-22T09:00:22;101816.09;;;22.39;100.00
69153;BME280;56261;51.580;4.578;2023-06-22T09:02:48;101809.00;;;22.56;100.00
69153;BME280;56261;51.580;4.578;2023-06-22T09:05:14;101808.31;;;22.43;100.00
69153;BME280;56261;51.580;4.578;2023-06-22T09:07:39;101818.91;;;22.51;100.00
69153;BME280;56261;51.580;4.578;2023-06-22T09:10:06;101820.63;;;22.64;100.00
69153;BME280;56261;51.580;4.578;2023-06-22T09:12:32;101810.63;;;22.39;100.00
69153;BME280;56261;51.580;4.578;2023-06-22T09:14:58;101807.63;;;22.47;100.00
69153;BME280;56261;51.580;4.578;2023-06-22T09:17:25;101811.19;;;22.48;100.00
69153;BME280;56261;51.580;4.578;2023-06-22T09:19:51;101801.44;;;22.58;100.00
69153;BME280;56261;51.580;4.578;2023-06-22T09:22:16;101807.31;;;22.37;100.00
69153;BME280;56261;51.580;4.578;2023-06-22T09:24:41;101803.88;;;22.48;100.00
69153;BME280;56261;51.580;4.578;2023-06-22T09:27:07;101803.69;;;22.43;100.00
69153;BME280;56261;51.580;4.578;2023-06-22T09:29:32;101803.03;;;22.48;100.00
69153;BME280;56261;51.580;4.578;2023-06-22T09:31:59;101803.84;;;22.05;100.00
69153;BME280;56261;51.580;4.578;2023-06-22T09:34:25;101811.03;;;22.17;100.00
69153;BME280;56261;51.580;4.578;2023-06-22T09:36:50;101800.41;;;22.59;100.00
69153;BME280;56261;51.580;4.578;2023-06-22T09:39:17;101794.03;;;22.66;100.00
69153;BME280;56261;51.580;4.578;2023-06-22T09:41:43;101800.47;;;22.53;100.00
69153;BME280;56261;51.580;4.578;2023-06-22T09:44:08;101797.38;;;22.49;100.00
69153;BME280;56261;51.580;4.578;2023-06-22T09:46:34;101802.56;;;22.32;100.00
69153;BME280;56261;51.580;4.578;2023-06-22T09:48:59;101797.44;;;22.43;100.00
69153;BME280;56261;51.580;4.578;2023-06-22T09:51:25;101801.31;;;22.53;100.00
69153;BME280;56261;51.580;4.578;2023-06-22T09:53:51;101801.06;;;22.55;100.00
69153;BME280;56261;51.580;4.578;2023-06-22T09:56:17;101808.66;;;22.28;100.00
69153;BME280;56261;51.580;4.578;2023-06-22T09:58:43;101805.81;;;22.41;100.00
69153;BME280;56261;51.580;4.578;2023-06-22T10:01:09;101804.38;;;22.38;100.00
69153;BME280;56261;51.580;4.578;2023-06-22T10:03:35;101796.50;;;22.30;100.00
69153;BME280;56261;51.580;4.578;2023-06-22T10:06:01;101782.19;;;22.42;100.00
69153;BME280;56261;51.580;4.578;2023-06-22T10:08:27;101805.06;;;22.34;100.00
69153;BME280;56261;51.580;4.578;2023-06-22T10:10:52;101820.69;;;22.38;100.00
69153;BME280;56261;51.580;4.578;2023-06-22T10:13:17;101822.09;;;22.23;100.00
69153;BME280;56261;51.580;4.578;2023-06-22T10:15:47;101818.97;;;22.44;100.00
69153;BME280;56261;51.580;4.578;2023-06-22T10:18:17;101813.53;;;22.63;100.00
69153;BME280;56261;51.580;4.578;2023-06-22T10:20:43;101817.66;;;22.28;100.00
69153;BME280;56261;51.580;4.578;2023-06-22T10:23:08;101822.50;;;22.26;100.00
69153;BME280;56261;51.580;4.578;2023-06-22T10:25:34;101832.44;;;22.32;100.00
69153;BME280;56261;51.580;4.578;2023-06-22T10:27:59;101825.75;;;22.35;100.00
69153;BME280;56261;51.580;4.578;2023-06-22T10:30:25;101815.66;;;22.42;100.00
69153;BME280;56261;51.580;4.578;2023-06-22T10:32:50;101820.19;;;22.67;100.00
69153;BME280;56261;51.580;4.578;2023-06-22T10:35:16;101820.19;;;22.85;100.00
69153;BME280;56261;51.580;4.578;2023-06-22T10:37:45;101828.84;;;22.57;100.00
69153;BME280;56261;51.580;4.578;2023-06-22T10:40:14;101838.41;;;22.23;100.00
69153;BME280;56261;51.580;4.578;2023-06-22T10:42:40;101838.09;;;22.56;100.00
69153;BME280;56261;51.580;4.578;2023-06-22T10:45:06;101831.50;;;22.45;100.00
69153;BME280;56261;51.580;4.578;2023-06-22T10:47:32;101838.22;;;22.17;100.00
69153;BME280;56261;51.580;4.578;2023-06-22T10:49:57;101840.66;;;22.26;100.00
69153;BME280;56261;51.580;4.578;2023-06-22T10:52:23;101837.63;;;22.41;100.00
69153;BME280;56261;51.580;4.578;2023-06-22T10:54:48;101841.09;;;22.48;100.00
69153;BME280;56261;51.580;4.578;2023-06-22T10:57:14;101841.19;;;22.59;100.00
69153;BME280;56261;51.580;4.578;2023-06-22T10:59:39;101827.59;;;22.59;100.00
69153;BME280;56261;51.580;4.578;2023-06-22T11:02:05;101837.19;;;22.62;100.00
69153;BME280;56261;51.580;4.578;2023-06-22T11:04:30;101836.38;;;22.36;100.00
69153;BME280;56261;51.580;4.578;2023-06-22T11:06:56;101844.47;;;22.18;100.00
69153;BME280;56261;51.580;4.578;2023-06-22T11:09:22;101838.53;;;22.03;100.00
69153;BME280;56261;51.580;4.578;2023-06-22T11:11:48;101846.97;;;21.94;100.00
69153;BME280;56261;51.580;4.578;2023-06-22T11:14:14;101838.38;;;21.72;100.00
69153;BME280;56261;51.580;4.578;2023-06-22T11:16:39;101830.78;;;21.49;100.00
69153;BME280;56261;51.580;4.578;2023-06-22T11:19:05;101825.81;;;20.94;100.00
69153;BME280;56261;51.580;4.578;2023-06-22T11:21:31;101821.50;;;20.73;100.00
69153;BME280;56261;51.580;4.578;2023-06-22T11:23:57;101816.09;;;20.67;100.00
69153;BME280;56261;51.580;4.578;2023-06-22T11:26:24;101825.75;;;21.08;100.00
69153;BME280;56261;51.580;4.578;2023-06-22T11:28:49;101822.88;;;20.89;100.00
69153;BME280;56261;51.580;4.578;2023-06-22T11:31:15;101820.75;;;21.05;100.00
69153;BME280;56261;51.580;4.578;2023-06-22T11:33:40;101813.13;;;20.82;100.00
69153;BME280;56261;51.580;4.578;2023-06-22T11:36:05;101817.91;;;20.86;100.00
69153;BME280;56261;51.580;4.578;2023-06-22T11:38:31;101806.56;;;21.03;100.00
69153;BME280;56261;51.580;4.578;2023-06-22T11:40:58;101793.69;;;20.91;100.00
69153;BME280;56261;51.580;4.578;2023-06-22T11:43:23;101799.44;;;20.63;100.00
69153;BME280;56261;51.580;4.578;2023-06-22T11:45:49;101791.69;;;20.67;100.00
69153;BME280;56261;51.580;4.578;2023-06-22T11:48:15;101799.44;;;20.63;100.00
69153;BME280;56261;51.580;4.578;2023-06-22T11:50:41;101799.78;;;20.80;100.00
69153;BME280;56261;51.580;4.578;2023-06-22T11:53:06;101791.84;;;20.85;100.00
69153;BME280;56261;51.580;4.578;2023-06-22T11:55:31;101784.09;;;20.89;100.00
69153;BME280;56261;51.580;4.578;2023-06-22T11:57:57;101788.50;;;20.90;100.00
69153;BME280;56261;51.580;4.578;2023-06-22T12:00:28;101787.22;;;20.92;100.00
69153;BME280;56261;51.580;4.578;2023-06-22T12:02:55;101784.44;;;20.61;100.00
69153;BME280;56261;51.580;4.578;2023-06-22T12:05:21;101784.03;;;20.37;100.00
69153;BME280;56261;51.580;4.578;2023-06-22T12:07:47;101773.66;;;20.14;100.00
69153;BME280;56261;51.580;4.578;2023-06-22T12:10:13;101773.41;;;20.22;100.00
69153;BME280;56261;51.580;4.578;2023-06-22T12:12:38;101767.78;;;20.24;100.00
69153;BME280;56261;51.580;4.578;2023-06-22T12:15:04;101772.34;;;20.43;100.00
69153;BME280;56261;51.580;4.578;2023-06-22T12:17:30;101759.47;;;20.19;100.00
69153;BME280;56261;51.580;4.578;2023-06-22T12:19:56;101761.56;;;20.10;100.00
69153;BME280;56261;51.580;4.578;2023-06-22T12:22:21;101763.78;;;20.40;100.00
69153;BME280;56261;51.580;4.578;2023-06-22T12:24:47;101760.06;;;20.41;100.00
69153;BME280;56261;51.580;4.578;2023-06-22T12:27:12;101764.63;;;20.40;100.00
69153;BME280;56261;51.580;4.578;2023-06-22T12:29:47;101762.75;;;20.61;100.00
69153;BME280;56261;51.580;4.578;2023-06-22T12:32:13;101754.81;;;20.59;100.00
69153;BME280;56261;51.580;4.578;2023-06-22T12:34:39;101757.78;;;20.31;100.00
69153;BME280;56261;51.580;4.578;2023-06-22T12:37:05;101762.53;;;20.42;100.00
69153;BME280;56261;51.580;4.578;2023-06-22T12:39:32;101758.22;;;20.21;100.00
69153;BME280;56261;51.580;4.578;2023-06-22T12:41:57;101765.91;;;20.24;100.00